createdAt,value
2023-02-12T00:00:30.042Z,99336.81
2023-02-12T00:02:58.489Z,99333.34
2023-02-12T00:05:26.813Z,99329.91
2023-02-12T00:07:55.169Z,99329.88
2023-02-12T00:10:23.237Z,99335.94
2023-02-12T00:12:51.978Z,99331.59
2023-02-12T00:15:21.723Z,99335.06
2023-02-12T00:17:49.781Z,99342.00
2023-02-12T00:20:17.924Z,99344.59
2023-02-12T00:22:46.270Z,99335.00
2023-02-12T00:25:15.143Z,99336.72
2023-02-12T00:27:42.917Z,99345.41
2023-02-12T00:30:11.831Z,99349.78
2023-02-12T00:32:42.397Z,99352.38
2023-02-12T00:35:10.987Z,99340.19
2023-02-12T00:37:38.931Z,99335.84
2023-02-12T00:40:08.176Z,99345.31
2023-02-12T00:42:36.424Z,99335.84
2023-02-12T00:45:05.078Z,99345.31
2023-02-12T00:47:32.880Z,99343.59
2023-02-12T00:50:02.195Z,99342.72
2023-02-12T00:52:30.650Z,99340.97
2023-02-12T00:54:58.924Z,99342.72
2023-02-12T00:57:26.748Z,99338.38
2023-02-12T00:59:55.073Z,99341.88
2023-02-12T01:02:23.133Z,99336.66
2023-02-12T01:04:51.079Z,99336.66
2023-02-12T01:07:21.394Z,99341.88
2023-02-12T01:09:49.213Z,99336.66
2023-02-12T01:12:17.140Z,99338.44
2023-02-12T01:14:45.484Z,99338.44
2023-02-12T01:17:13.802Z,99334.97
2023-02-12T01:19:42.785Z,99338.44
2023-02-12T01:22:11.034Z,99341.06
2023-02-12T01:24:40.628Z,99328.03
2023-02-12T01:27:08.375Z,99334.97
2023-02-12T01:29:36.680Z,99341.94
2023-02-12T01:32:05.399Z,99335.84
2023-02-12T01:34:34.722Z,99333.22
2023-02-12T01:37:02.824Z,99329.75
2023-02-12T01:39:30.757Z,99333.22
2023-02-12T01:42:00.228Z,99330.63
2023-02-12T01:44:30.601Z,99339.34
2023-02-12T01:47:00.316Z,99332.38
2023-02-12T01:49:31.866Z,99316.88
2023-02-12T01:52:02.646Z,99331.50
2023-02-12T01:54:30.652Z,99322.00
2023-02-12T01:57:00.429Z,99334.09
2023-02-12T01:59:28.339Z,99323.75
2023-02-12T02:01:56.211Z,99330.63
2023-02-12T02:04:27.222Z,99332.34
2023-02-12T02:06:58.533Z,99321.06
2023-02-12T02:09:27.181Z,99328.81
2023-02-12T02:12:12.585Z,99324.50
2023-02-12T02:14:42.587Z,99317.56
2023-02-12T02:17:28.760Z,99326.28
2023-02-12T02:20:35.798Z,99326.28
2023-02-12T02:23:17.914Z,99328.03
2023-02-12T02:26:11.827Z,99310.63
2023-02-12T02:29:00.114Z,99311.50
2023-02-12T02:31:34.342Z,99321.06
2023-02-12T02:34:05.228Z,99312.44
2023-02-12T02:36:36.636Z,99312.44
2023-02-12T02:39:07.793Z,99316.78
2023-02-12T02:41:39.457Z,99309.81
2023-02-12T02:44:11.701Z,99315.00
2023-02-12T02:46:44.625Z,99324.53
2023-02-12T02:49:16.027Z,99328.81
2023-02-12T02:51:46.229Z,99333.09
2023-02-12T02:54:16.293Z,99327.84
2023-02-12T02:56:47.320Z,99314.91
2023-02-12T02:59:19.277Z,99326.91
2023-02-12T03:01:51.385Z,99325.13
2023-02-12T03:04:22.154Z,99319.00
2023-02-12T03:06:56.789Z,99322.44
2023-02-12T03:09:27.761Z,99315.47
2023-02-12T03:12:00.127Z,99323.28
2023-02-12T03:14:30.200Z,99317.19
2023-02-12T03:17:01.473Z,99313.66
2023-02-12T03:19:32.247Z,99311.03
2023-02-12T03:22:02.475Z,99281.72
2023-02-12T03:24:36.082Z,99324.84
2023-02-12T03:27:07.591Z,99328.22
2023-02-12T03:29:35.443Z,99323.84
2023-02-12T03:32:17.508Z,99323.84
2023-02-12T03:34:50.348Z,99325.53
2023-02-12T03:37:22.130Z,99291.84
2023-02-12T03:39:54.622Z,99316.91
2023-02-12T03:42:28.758Z,99319.63
2023-02-12T03:44:58.723Z,99316.25
2023-02-12T03:47:36.892Z,99318.75
2023-02-12T03:50:10.808Z,99320.47
2023-02-12T03:52:38.802Z,99322.25
2023-02-12T03:55:08.320Z,99327.47
2023-02-12T03:57:40.636Z,99328.34
2023-02-12T04:00:11.232Z,99318.84
2023-02-12T04:02:40.629Z,99328.28
2023-02-12T04:05:15.727Z,99329.13
2023-02-12T04:07:43.625Z,99330.06
2023-02-12T04:10:12.103Z,99334.31
2023-02-12T04:12:42.392Z,99334.34
2023-02-12T04:15:20.963Z,99330.03
2023-02-12T04:17:52.632Z,99333.56
2023-02-12T04:20:27.920Z,99334.34
2023-02-12T04:23:03.234Z,99348.31
2023-02-12T04:25:47.541Z,99353.53
2023-02-12T04:28:21.699Z,99356.94
2023-02-12T04:30:55.922Z,99356.19
2023-02-12T04:33:27.153Z,99355.28
2023-02-12T04:36:01.894Z,99356.16
2023-02-12T04:38:33.566Z,99358.78
2023-02-12T04:41:01.621Z,99355.22
2023-02-12T04:43:30.450Z,99359.56
2023-02-12T04:45:58.575Z,99370.91
2023-02-12T04:48:27.961Z,99365.75
2023-02-12T04:50:55.756Z,99370.91
2023-02-12T04:53:23.510Z,99370.03
2023-02-12T04:55:51.320Z,99370.03
2023-02-12T04:58:19.392Z,99375.22
2023-02-12T05:00:47.124Z,99370.78
2023-02-12T05:03:14.889Z,99371.66
2023-02-12T05:05:44.044Z,99343.13
2023-02-12T05:08:11.799Z,99353.31
2023-02-12T05:10:39.563Z,99360.25
2023-02-12T05:13:07.316Z,99361.19
2023-02-12T05:15:35.098Z,99364.81
2023-02-12T05:18:02.897Z,99367.47
2023-02-12T05:20:30.669Z,99354.53
2023-02-12T05:22:59.801Z,99371.88
2023-02-12T05:25:27.639Z,99367.56
2023-02-12T05:27:56.714Z,99364.03
2023-02-12T05:30:24.574Z,99371.84
2023-02-12T05:32:52.350Z,99366.63
2023-02-12T05:35:20.093Z,99374.44
2023-02-12T05:37:47.936Z,99372.66
2023-02-12T05:40:17.895Z,99372.63
2023-02-12T05:42:45.694Z,99374.28
2023-02-12T05:45:13.422Z,99382.97
2023-02-12T05:47:41.195Z,99372.50
2023-02-12T05:50:09.636Z,99370.72
2023-02-12T05:52:37.391Z,99369.91
2023-02-12T05:55:05.607Z,99376.78
2023-02-12T05:57:34.758Z,99375.94
2023-02-12T06:00:02.571Z,99379.44
2023-02-12T06:02:30.437Z,99369.84
2023-02-12T06:04:58.205Z,99368.09
2023-02-12T06:07:26.035Z,99387.22
2023-02-12T06:09:54.997Z,99382.03
2023-02-12T06:12:22.769Z,99375.06
2023-02-12T06:14:52.363Z,99379.41
2023-02-12T06:17:20.147Z,99380.28
2023-02-12T06:19:47.965Z,99388.13
2023-02-12T06:22:15.726Z,99382.03
2023-02-12T06:24:43.526Z,99383.75
2023-02-12T06:27:11.275Z,99383.75
2023-02-12T06:29:39.062Z,99386.38
2023-02-12T06:32:08.638Z,99391.59
2023-02-12T06:34:36.518Z,99393.41
2023-02-12T06:37:04.302Z,99395.16
2023-02-12T06:39:32.142Z,99396.00
2023-02-12T06:41:59.986Z,99398.56
2023-02-12T06:44:27.796Z,99394.19
2023-02-12T06:46:55.646Z,99400.25
2023-02-12T06:49:24.850Z,99397.59
2023-02-12T06:51:52.633Z,99397.56
2023-02-12T06:54:20.461Z,99411.50
2023-02-12T06:56:48.289Z,99410.63
2023-02-12T06:59:17.432Z,99408.03
2023-02-12T07:01:45.303Z,99404.56
2023-02-12T07:04:13.255Z,99408.84
2023-02-12T07:06:42.505Z,99412.25
2023-02-12T07:09:10.365Z,99416.56
2023-02-12T07:11:38.869Z,99414.84
2023-02-12T07:14:06.754Z,99420.09
2023-02-12T07:16:34.707Z,99416.63
2023-02-12T07:19:02.525Z,99426.22
2023-02-12T07:21:31.847Z,99422.72
2023-02-12T07:24:01.204Z,99422.66
2023-02-12T07:26:29.129Z,99425.25
2023-02-12T07:28:58.263Z,99428.72
2023-02-12T07:31:26.104Z,99428.63
2023-02-12T07:33:55.275Z,99423.50
2023-02-12T07:36:23.756Z,99432.06
2023-02-12T07:38:51.928Z,99423.31
2023-02-12T07:41:22.618Z,99422.44
2023-02-12T07:43:55.161Z,99420.69
2023-02-12T07:46:26.337Z,99424.06
2023-02-12T07:48:54.150Z,99431.91
2023-02-12T07:51:21.950Z,99438.81
2023-02-12T07:53:50.244Z,99439.66
2023-02-12T07:56:21.577Z,99443.94
2023-02-12T07:58:50.924Z,99438.59
2023-02-12T08:01:20.945Z,99442.06
2023-02-12T08:03:50.030Z,99441.97
2023-02-12T08:06:19.449Z,99437.56
2023-02-12T08:08:47.219Z,99438.38
2023-02-12T08:11:15.943Z,99371.78
2023-02-12T08:13:45.524Z,99440.00
2023-02-12T08:16:14.547Z,99442.63
2023-02-12T08:18:43.206Z,99441.78
2023-02-12T08:21:12.689Z,99442.63
2023-02-12T08:23:40.765Z,99441.00
2023-02-12T08:26:11.493Z,99443.69
2023-02-12T08:28:45.315Z,99448.94
2023-02-12T08:31:16.283Z,99448.88
2023-02-12T08:33:45.985Z,99437.66
2023-02-12T08:36:15.687Z,99459.22
2023-02-12T08:38:44.340Z,99456.56
2023-02-12T08:41:13.377Z,99454.66
2023-02-12T08:43:42.055Z,99452.03
2023-02-12T08:46:12.843Z,99460.84
2023-02-12T08:48:42.804Z,99465.06
2023-02-12T08:51:12.839Z,99472.88
2023-02-12T08:53:41.973Z,99465.94
2023-02-12T08:56:10.733Z,99466.81
2023-02-12T08:58:39.018Z,99472.03
2023-02-12T09:01:11.016Z,99471.94
2023-02-12T09:03:39.005Z,99470.19
2023-02-12T09:06:09.033Z,99472.78
2023-02-12T09:08:37.559Z,99472.72
2023-02-12T09:11:06.300Z,99477.03
2023-02-12T09:13:34.109Z,99473.59
2023-02-12T09:16:02.304Z,99471.81
2023-02-12T09:18:30.357Z,99476.25
2023-02-12T09:21:05.090Z,99475.41
2023-02-12T09:23:34.630Z,99461.44
2023-02-12T09:26:05.644Z,99444.19
2023-02-12T09:28:33.839Z,99477.16
2023-02-12T09:31:06.900Z,99472.06
2023-02-12T09:33:34.988Z,99476.53
2023-02-12T09:36:04.217Z,99473.03
2023-02-12T09:38:34.124Z,99472.25
2023-02-12T09:41:30.022Z,99479.03
2023-02-12T09:44:00.529Z,99480.78
2023-02-12T09:46:31.476Z,99481.53
2023-02-12T09:49:09.682Z,99486.78
2023-02-12T09:51:38.196Z,99484.22
2023-02-12T09:54:11.037Z,99485.88
2023-02-12T09:56:40.018Z,99478.84
2023-02-12T09:59:09.308Z,99487.41
2023-02-12T10:01:37.211Z,99492.75
2023-02-12T10:04:06.348Z,99484.16
2023-02-12T10:06:38.795Z,99487.72
2023-02-12T10:09:23.014Z,99491.19
2023-02-12T10:11:56.574Z,99489.38
2023-02-12T10:14:51.114Z,99493.66
2023-02-12T10:17:25.501Z,99459.88
2023-02-12T10:20:30.965Z,99493.72
2023-02-12T10:23:04.821Z,99491.28
2023-02-12T10:25:38.030Z,99498.44
2023-02-12T10:28:10.355Z,99489.88
2023-02-12T10:30:42.402Z,99498.66
2023-02-12T10:33:14.980Z,99502.09
2023-02-12T10:35:46.116Z,99498.53
2023-02-12T10:38:17.733Z,99475.88
2023-02-12T10:40:47.182Z,99493.84
2023-02-12T10:43:15.664Z,99493.72
2023-02-12T10:45:44.831Z,99491.75
2023-02-12T10:48:14.956Z,99486.31
2023-02-12T10:50:50.148Z,99495.00
2023-02-12T10:53:22.069Z,99489.66
2023-02-12T10:55:51.427Z,99485.16
2023-02-12T10:58:22.254Z,99483.31
2023-02-12T11:00:58.011Z,99483.19
2023-02-12T11:03:30.552Z,99481.38
2023-02-12T11:05:58.659Z,99483.03
2023-02-12T11:08:31.145Z,99479.44
2023-02-12T11:11:09.487Z,99474.22
2023-02-12T11:13:38.944Z,99475.03
2023-02-12T11:16:07.461Z,99464.78
2023-02-12T11:18:37.343Z,99463.25
2023-02-12T11:21:07.028Z,99464.16
2023-02-12T11:23:37.890Z,99453.50
2023-02-12T11:26:10.768Z,99459.44
2023-02-12T11:28:38.765Z,99463.53
2023-02-12T11:31:22.665Z,99454.06
2023-02-12T11:53:01.805Z,99440.00
2023-02-12T11:55:33.629Z,99445.94
2023-02-12T11:58:06.379Z,99440.81
2023-02-12T12:00:39.028Z,99432.84
2023-02-12T12:03:13.280Z,99406.31
2023-02-12T12:05:45.779Z,99432.38
2023-02-12T12:08:27.125Z,99427.91
2023-02-12T12:10:58.320Z,99420.13
2023-02-12T12:13:33.705Z,99424.16
2023-02-12T12:16:27.598Z,99406.47
2023-02-12T12:19:15.309Z,99412.44
2023-02-12T12:21:47.114Z,99416.56
2023-02-12T12:24:18.001Z,99415.63
2023-02-12T12:26:48.138Z,99404.97
2023-02-12T12:29:22.623Z,99406.72
2023-02-12T12:31:54.901Z,99399.72
2023-02-12T12:34:24.087Z,99403.78
2023-02-12T12:37:18.674Z,99403.97
2023-02-12T12:39:59.683Z,99402.47
2023-02-12T12:42:57.270Z,99409.66
2023-02-12T12:45:41.227Z,99402.47
2023-02-12T12:48:20.804Z,99408.03
2023-02-12T12:51:03.639Z,99402.69
2023-02-12T12:53:39.850Z,99395.97
2023-02-12T12:56:46.841Z,99401.03
2023-02-12T12:59:35.859Z,99391.28
2023-02-12T13:02:39.396Z,99389.13
2023-02-12T13:05:34.770Z,99387.53
2023-02-12T13:08:05.740Z,99387.66
2023-02-12T13:10:35.664Z,99378.72
2023-02-12T13:13:10.675Z,99379.19
2023-02-12T13:15:40.725Z,99376.69
2023-02-12T13:18:18.582Z,99373.25
2023-02-12T13:20:52.208Z,99364.84
2023-02-12T13:23:25.572Z,99377.72
2023-02-12T13:25:58.932Z,99376.91
2023-02-12T13:28:35.259Z,99376.09
2023-02-12T13:31:09.489Z,99369.22
2023-02-12T13:33:47.903Z,99367.41
2023-02-12T13:36:17.078Z,99366.41
2023-02-12T13:38:48.523Z,99359.94
2023-02-12T13:41:17.189Z,99361.53
2023-02-12T13:43:50.482Z,99362.22
2023-02-12T13:46:26.226Z,99361.34
2023-02-12T13:49:01.874Z,99360.66
2023-02-12T13:51:40.904Z,99357.63
2023-02-12T13:54:18.301Z,99367.03
2023-02-12T13:56:48.226Z,99360.91
2023-02-12T13:59:50.691Z,99360.94
2023-02-12T14:02:44.013Z,99359.22
2023-02-12T14:05:22.084Z,99365.50
2023-02-12T14:07:53.200Z,99359.41
2023-02-12T14:10:23.873Z,99364.47
2023-02-12T14:12:52.278Z,99364.47
2023-02-12T14:15:31.654Z,99360.03
2023-02-12T14:18:22.316Z,99360.84
2023-02-12T14:20:51.750Z,99356.47
2023-02-12T14:23:25.878Z,99363.47
2023-02-12T14:26:04.922Z,99353.97
2023-02-12T14:28:48.764Z,99341.56
2023-02-12T14:31:31.891Z,99345.34
2023-02-12T14:34:49.200Z,99344.19
2023-02-12T14:37:19.859Z,99340.84
2023-02-12T14:39:48.987Z,99344.38
2023-02-12T14:42:45.020Z,99343.50
2023-02-12T14:45:31.189Z,99350.91
2023-02-12T14:47:59.185Z,99347.59
2023-02-12T14:50:30.924Z,99345.03
2023-02-12T14:53:05.957Z,99347.66
2023-02-12T14:55:36.345Z,99336.31
2023-02-12T14:58:06.402Z,99343.94
2023-02-12T15:00:37.530Z,99338.63
2023-02-12T15:03:18.062Z,99342.81
2023-02-12T15:05:51.518Z,99340.88
2023-02-12T15:08:31.134Z,99331.38
2023-02-12T15:11:10.650Z,99335.91
2023-02-12T15:13:47.463Z,99337.09
2023-02-12T15:16:22.150Z,99336.47
2023-02-12T15:18:53.575Z,99337.44
2023-02-12T15:21:23.701Z,99342.66
2023-02-12T15:24:02.896Z,99339.28
2023-02-12T15:26:34.346Z,99331.47
2023-02-12T15:29:02.316Z,99339.38
2023-02-12T15:31:31.511Z,99335.88
2023-02-12T15:34:02.887Z,99339.38
2023-02-12T15:36:33.236Z,99340.28
2023-02-12T15:39:04.156Z,99339.38
2023-02-12T15:41:43.692Z,99338.44
2023-02-12T15:44:24.187Z,99338.22
2023-02-12T15:47:00.797Z,99339.91
2023-02-12T15:49:31.925Z,99330.31
2023-02-12T15:52:00.476Z,99329.47
2023-02-12T15:54:28.565Z,99335.41
2023-02-12T15:56:57.808Z,99330.03
2023-02-12T15:59:29.265Z,99322.13
2023-02-12T16:02:00.563Z,99324.75
2023-02-12T16:04:31.006Z,99328.06
2023-02-12T16:06:59.813Z,99328.13
2023-02-12T16:09:30.717Z,99324.63
2023-02-12T16:12:01.941Z,99322.97
2023-02-12T16:14:36.634Z,99325.59
2023-02-12T16:17:04.393Z,99328.22
2023-02-12T16:19:33.984Z,99331.66
2023-02-12T16:22:08.081Z,99330.03
2023-02-12T16:24:37.837Z,99332.69
2023-02-12T16:27:09.487Z,99267.06
2023-02-12T16:29:39.976Z,99323.88
2023-02-12T16:32:07.779Z,99320.25
2023-02-12T16:34:37.127Z,99327.19
2023-02-12T16:37:32.918Z,99327.38
2023-02-12T16:40:27.218Z,99320.59
2023-02-12T16:43:25.153Z,99325.94
2023-02-12T16:46:05.862Z,99330.50
2023-02-12T16:48:38.545Z,99326.97
2023-02-12T16:51:06.535Z,99322.59
2023-02-12T16:53:42.987Z,99329.56
2023-02-12T16:56:16.760Z,99330.34
2023-02-12T16:58:46.879Z,99339.09
2023-02-12T17:01:19.253Z,99338.25
2023-02-12T17:03:50.422Z,99345.31
2023-02-12T17:06:20.213Z,99345.38
2023-02-12T17:08:47.980Z,99344.63
2023-02-12T17:11:17.794Z,99340.41
2023-02-12T17:13:48.223Z,99353.66
2023-02-12T17:16:29.936Z,99320.16
2023-02-12T17:18:58.378Z,99353.16
2023-02-12T17:21:27.957Z,99346.50
2023-02-12T17:23:55.686Z,99344.81
2023-02-12T17:26:23.994Z,99354.63
2023-02-12T17:28:53.089Z,99353.00
2023-02-12T17:31:21.287Z,99361.00
2023-02-12T17:33:49.068Z,99357.59
2023-02-12T17:36:16.855Z,99358.56
2023-02-12T17:38:47.475Z,99363.91
2023-02-12T17:41:15.225Z,99369.28
2023-02-12T17:43:42.958Z,99372.88
2023-02-12T17:46:14.183Z,99367.75
2023-02-12T17:48:41.930Z,99366.09
2023-02-12T17:51:11.553Z,99369.63
2023-02-12T17:53:39.340Z,99368.84
2023-02-12T17:56:11.265Z,99366.31
2023-02-12T17:58:39.476Z,99371.59
2023-02-12T18:01:08.000Z,99371.72
2023-02-12T18:03:37.525Z,99371.72
2023-02-12T18:06:06.945Z,99368.41
2023-02-12T18:08:34.952Z,99378.00
2023-02-12T18:11:06.475Z,99375.44
2023-02-12T18:13:34.278Z,99377.25
2023-02-12T18:16:02.411Z,99375.59
2023-02-12T18:18:30.135Z,99382.56
2023-02-12T18:20:59.475Z,99379.13
2023-02-12T18:23:27.354Z,99372.25
2023-02-12T18:25:55.094Z,99379.28
2023-02-12T18:28:22.912Z,99381.03
2023-02-12T18:30:57.083Z,99380.19
2023-02-12T18:33:25.351Z,99382.84
2023-02-12T18:36:02.802Z,99375.06
2023-02-12T18:38:31.077Z,99374.25
2023-02-12T18:40:59.777Z,99354.44
2023-02-12T18:43:27.597Z,99381.34
2023-02-12T18:45:55.694Z,99373.56
2023-02-12T18:48:23.437Z,99376.19
2023-02-12T18:50:53.144Z,99369.25
2023-02-12T18:53:22.342Z,99369.25
2023-02-12T18:55:50.660Z,99369.25
2023-02-12T18:58:18.405Z,99364.88
2023-02-12T19:00:46.105Z,99366.63
2023-02-12T19:03:13.839Z,99362.25
2023-02-12T19:05:41.543Z,99366.53
2023-02-12T19:08:09.381Z,99366.50
2023-02-12T19:10:41.270Z,99378.63
2023-02-12T19:13:09.057Z,99364.59
2023-02-12T19:15:39.526Z,99362.75
2023-02-12T19:18:07.398Z,99353.19
2023-02-12T19:20:35.170Z,99361.88
2023-02-12T19:23:02.883Z,99363.53
2023-02-12T19:25:30.632Z,99371.38
2023-02-12T19:27:59.781Z,99372.25
2023-02-12T19:30:27.569Z,99367.03
2023-02-12T19:32:55.340Z,99373.13
2023-02-12T19:35:23.053Z,99367.03
2023-02-12T19:37:50.800Z,99325.53
2023-02-12T19:40:18.766Z,99361.88
2023-02-12T19:42:46.508Z,99367.06
2023-02-12T19:45:16.035Z,99373.19
2023-02-12T19:47:43.846Z,99368.84
2023-02-12T19:50:11.852Z,99354.06
2023-02-12T19:52:39.629Z,99359.25
2023-02-12T19:55:07.653Z,99351.53
2023-02-12T19:57:36.753Z,99367.13
2023-02-12T20:00:07.425Z,99361.97
2023-02-12T20:02:36.607Z,99363.69
2023-02-12T20:05:04.445Z,99361.97
2023-02-12T20:07:32.344Z,99361.91
2023-02-12T20:10:00.090Z,99361.91
2023-02-12T20:12:27.898Z,99358.47
2023-02-12T20:14:56.575Z,99355.81
2023-02-12T20:17:24.410Z,99365.25
2023-02-12T20:19:53.633Z,99351.34
2023-02-12T20:22:23.139Z,99354.78
2023-02-12T20:24:52.328Z,99350.41
2023-02-12T20:27:20.084Z,99356.47
2023-02-12T20:29:47.851Z,99353.84
2023-02-12T20:32:15.645Z,99365.09
2023-02-12T20:34:50.819Z,99370.28
2023-02-12T20:37:20.150Z,99372.03
2023-02-12T20:39:48.298Z,99372.81
2023-02-12T20:42:16.041Z,99377.16
2023-02-12T20:44:43.840Z,99376.25
2023-02-12T20:47:11.646Z,99384.97
2023-02-12T20:49:39.616Z,99386.69
2023-02-12T20:52:07.468Z,99383.22
2023-02-12T20:54:38.063Z,99389.31
2023-02-12T20:57:07.002Z,99387.59
2023-02-12T20:59:34.746Z,99391.03
2023-02-12T21:02:02.466Z,99384.97
2023-02-12T21:04:32.178Z,99392.81
2023-02-12T21:07:00.361Z,99391.06
2023-02-12T21:09:28.401Z,99391.94
2023-02-12T21:11:59.027Z,99391.06
2023-02-12T21:14:27.060Z,99391.06
2023-02-12T21:16:55.730Z,99394.56
2023-02-12T21:19:23.777Z,99395.53
2023-02-12T21:21:51.489Z,99391.06
2023-02-12T21:24:21.736Z,99395.53
2023-02-12T21:26:49.633Z,99385.97
2023-02-12T21:29:19.139Z,99392.94
2023-02-12T21:31:48.087Z,99398.13
2023-02-12T21:34:18.715Z,99384.28
2023-02-12T21:36:48.664Z,99399.00
2023-02-12T21:39:24.412Z,99398.13
2023-02-12T21:41:53.766Z,99403.38
2023-02-12T21:44:24.016Z,99398.22
2023-02-12T21:46:52.506Z,99393.03
2023-02-12T21:49:24.973Z,99398.25
2023-02-12T21:51:54.036Z,99362.06
2023-02-12T21:54:22.497Z,99403.47
2023-02-12T21:56:51.350Z,99403.47
2023-02-12T21:59:19.652Z,99400.03
2023-02-12T22:01:50.415Z,99402.63
2023-02-12T22:04:19.300Z,99396.59
2023-02-12T22:06:48.913Z,99378.41
2023-02-12T22:09:18.354Z,99404.38
2023-02-12T22:11:46.593Z,99403.56
2023-02-12T22:14:18.732Z,99401.84
2023-02-12T22:16:47.693Z,99409.69
2023-02-12T22:19:17.402Z,99393.16
2023-02-12T22:21:45.656Z,99404.50
2023-02-12T22:24:15.927Z,99407.09
2023-02-12T22:26:44.641Z,99399.31
2023-02-12T22:29:14.229Z,99389.81
2023-02-12T22:31:43.973Z,99397.56
2023-02-12T22:34:13.829Z,99394.09
2023-02-12T22:36:44.080Z,99395.84
2023-02-12T22:39:13.880Z,99388.09
2023-02-12T22:41:43.160Z,99405.41
2023-02-12T22:44:12.757Z,99400.19
2023-02-12T22:46:40.638Z,99406.25
2023-02-12T22:49:08.847Z,99399.41
2023-02-12T22:51:38.986Z,99404.56
2023-02-12T22:54:08.796Z,99410.72
2023-02-12T22:56:37.264Z,99406.38
2023-02-12T22:59:04.999Z,99408.16
2023-02-12T23:01:33.352Z,99410.78
2023-02-12T23:04:01.584Z,99407.34
2023-02-12T23:06:31.572Z,99404.75
2023-02-12T23:09:01.387Z,99409.97
2023-02-12T23:11:32.590Z,99393.63
2023-02-12T23:14:00.732Z,99410.84
2023-02-12T23:16:29.001Z,99409.13
2023-02-12T23:18:57.713Z,99405.63
2023-02-12T23:21:26.412Z,99410.84
2023-02-12T23:23:54.519Z,99412.66
2023-02-12T23:26:22.899Z,99407.47
2023-02-12T23:28:52.906Z,99406.66
2023-02-12T23:31:20.933Z,99410.16
2023-02-12T23:33:48.827Z,99407.53
2023-02-12T23:36:17.243Z,99408.41
2023-02-12T23:38:45.135Z,99415.34
2023-02-12T23:41:13.306Z,99412.69
2023-02-12T23:43:42.505Z,99417.97
2023-02-12T23:46:12.609Z,99411.88
2023-02-12T23:48:44.507Z,99411.00
2023-02-12T23:51:13.111Z,99411.91
2023-02-12T23:53:41.202Z,99400.59
2023-02-12T23:56:09.094Z,99404.09
2023-02-12T23:58:37.673Z,99397.19
